Bonney, New York
Current Conditions -  °F | °C
As of 5:55 PM on Saturday 25 Oct 2014 (Local Time) from KN03 Reporting Station
Light Rain Light Rain  
Wind Chill: 61°   Ceiling: 5500
Heat Index: 61°   Visibility: 10mi
Dew Point: 45°   Wind: 7mph
Humidity: 55%   Direction: 240°WSW
Pressure: 29.57"   Gusts: NA
Location:  42.6914°N, 75.6351°W
Report Text: KN03 252155Z AUTO 24006KT 10SM -RA BKN055 BKN065 OVC095 16/07 A2957 RMK AO2
Loading
Personal Weather Stations






























Interactive Weather Map
Tropical Storm Tracking
New forecast layout! Learn more

10-Day Weather Forecast

Advertisements
Track Severe Weather on mobile